createdAt,value
2023-01-31T00:01:48.029Z,99054.83
2023-01-31T00:04:21.869Z,99061.98
2023-01-31T00:06:55.510Z,99062.06
2023-01-31T00:09:29.618Z,99060.64
2023-01-31T00:12:03.834Z,99067.40
2023-01-31T00:14:37.774Z,99074.11
2023-01-31T00:17:11.562Z,99074.06
2023-01-31T00:19:45.004Z,99076.34
2023-01-31T00:22:18.608Z,99078.30
2023-01-31T00:24:52.668Z,99078.38
2023-01-31T00:27:26.202Z,99079.89
2023-01-31T00:30:00.933Z,99082.46
2023-01-31T00:32:34.978Z,99084.66
2023-01-31T00:35:09.948Z,99088.39
2023-01-31T00:37:43.592Z,99091.11
2023-01-31T00:40:18.027Z,99092.73
2023-01-31T00:42:52.460Z,99090.48
2023-01-31T00:45:26.134Z,99092.74
2023-01-31T00:48:00.177Z,99100.57
2023-01-31T00:50:34.639Z,99102.09
2023-01-31T00:53:09.461Z,99106.08
2023-01-31T00:55:43.575Z,99114.19
2023-01-31T00:58:17.825Z,99113.54
2023-01-31T01:00:54.581Z,99115.48
2023-01-31T01:03:28.907Z,99117.20
2023-01-31T01:06:02.751Z,99119.73
2023-01-31T01:08:37.899Z,99125.91
2023-01-31T01:11:14.681Z,99127.02
2023-01-31T01:13:49.287Z,99127.99
2023-01-31T01:16:25.502Z,99127.83
2023-01-31T01:19:10.611Z,99125.91
2023-01-31T01:21:44.871Z,99129.23
2023-01-31T01:24:20.622Z,99131.10
2023-01-31T01:26:55.030Z,99124.96
2023-01-31T01:29:28.916Z,99124.98
2023-01-31T01:32:03.107Z,99125.21
2023-01-31T01:34:38.144Z,99129.27
2023-01-31T01:37:20.373Z,99124.33
2023-01-31T01:39:54.774Z,99131.81
2023-01-31T01:42:35.367Z,99138.02
2023-01-31T01:45:18.853Z,99143.33
2023-01-31T01:47:57.720Z,99144.17
2023-01-31T01:50:37.017Z,99154.51
2023-01-31T01:53:14.065Z,99156.77
2023-01-31T01:55:52.530Z,99157.86
2023-01-31T01:58:29.480Z,99159.34
2023-01-31T02:01:04.216Z,99165.66
2023-01-31T02:03:38.443Z,99168.76
2023-01-31T02:06:12.394Z,99174.54
2023-01-31T02:08:48.677Z,99176.92
2023-01-31T02:11:25.944Z,99178.95
2023-01-31T02:14:04.223Z,99186.42
2023-01-31T02:16:40.862Z,99194.11
2023-01-31T02:19:22.082Z,99198.92
2023-01-31T02:22:16.928Z,99204.05
2023-01-31T02:25:38.288Z,99211.49
2023-01-31T02:29:04.016Z,99215.48
2023-01-31T02:32:01.939Z,99214.77
2023-01-31T02:34:47.976Z,99214.00
2023-01-31T02:37:31.382Z,99218.73
2023-01-31T02:40:14.770Z,99220.91
2023-01-31T02:42:56.776Z,99227.67
2023-01-31T02:45:40.057Z,99231.98
2023-01-31T02:48:23.221Z,99239.95
2023-01-31T02:51:06.821Z,99244.13
2023-01-31T02:53:46.518Z,99247.92
2023-01-31T02:56:25.617Z,99251.64
2023-01-31T02:59:04.538Z,99252.36
2023-01-31T03:01:41.932Z,99264.50
2023-01-31T03:04:16.907Z,99271.14
2023-01-31T03:07:00.600Z,99272.19
2023-01-31T03:09:49.944Z,99274.70
2023-01-31T03:12:38.669Z,99286.19
2023-01-31T03:15:51.050Z,99288.48
2023-01-31T03:18:29.831Z,99293.39
2023-01-31T03:21:10.029Z,99301.82
2023-01-31T03:23:47.251Z,99304.31
2023-01-31T03:26:23.066Z,99310.66
2023-01-31T03:28:59.192Z,99319.83
2023-01-31T03:31:37.661Z,99321.16
2023-01-31T03:34:14.081Z,99324.95
2023-01-31T03:36:56.192Z,99328.88
2023-01-31T03:39:44.613Z,99338.30
2023-01-31T03:42:26.141Z,99338.14
2023-01-31T03:45:06.426Z,99330.99
2023-01-31T03:47:43.769Z,99332.61
2023-01-31T03:50:22.004Z,99335.13
2023-01-31T03:53:02.735Z,99334.20
2023-01-31T03:55:42.184Z,99331.92
2023-01-31T03:58:20.078Z,99333.57
2023-01-31T04:00:54.540Z,99337.80
2023-01-31T04:03:34.475Z,99336.95
2023-01-31T04:06:13.408Z,99342.80
2023-01-31T04:08:47.772Z,99348.00
2023-01-31T04:11:26.431Z,99342.61
2023-01-31T04:14:00.279Z,99346.91
2023-01-31T04:16:34.543Z,99348.23
2023-01-31T04:19:08.186Z,99352.27
2023-01-31T04:21:42.261Z,99357.00
2023-01-31T04:24:16.022Z,99356.92
2023-01-31T04:26:49.733Z,99360.91
2023-01-31T04:29:23.614Z,99364.34
2023-01-31T04:31:57.419Z,99374.23
2023-01-31T04:34:30.905Z,99376.59
2023-01-31T04:37:04.650Z,99385.06
2023-01-31T04:39:38.286Z,99392.89
2023-01-31T04:42:12.129Z,99395.87
2023-01-31T04:44:46.088Z,99396.77
2023-01-31T04:47:19.983Z,99401.65
2023-01-31T04:49:53.845Z,99410.24
2023-01-31T04:52:27.810Z,99411.44
2023-01-31T04:55:01.657Z,99415.20
2023-01-31T04:57:35.266Z,99418.98
2023-01-31T05:00:10.979Z,99424.58
2023-01-31T05:02:48.119Z,99420.73
2023-01-31T05:05:22.464Z,99414.88
2023-01-31T05:07:56.604Z,99421.60
2023-01-31T05:10:30.205Z,99429.17
2023-01-31T05:13:04.985Z,99430.55
2023-01-31T05:15:38.970Z,99429.20
2023-01-31T05:18:12.490Z,99440.23
2023-01-31T05:20:46.040Z,99443.69
2023-01-31T05:23:20.329Z,99452.72
2023-01-31T05:25:54.508Z,99453.64
2023-01-31T05:28:28.790Z,99461.15
2023-01-31T05:31:09.150Z,99468.29
2023-01-31T05:33:43.484Z,99469.20
2023-01-31T05:36:17.013Z,99472.89
2023-01-31T05:38:50.922Z,99478.52
2023-01-31T05:41:28.046Z,99489.85
2023-01-31T05:44:01.882Z,99493.67
2023-01-31T05:46:35.837Z,99495.42
2023-01-31T05:49:10.150Z,99500.71
2023-01-31T05:51:44.215Z,99504.77
2023-01-31T05:54:18.274Z,99511.00
2023-01-31T05:56:52.201Z,99514.58
2023-01-31T05:59:26.751Z,99516.44
2023-01-31T06:02:01.092Z,99521.48
2023-01-31T06:04:34.965Z,99523.02
2023-01-31T06:07:08.677Z,99529.64
2023-01-31T06:09:42.707Z,99533.63
2023-01-31T06:12:17.658Z,99536.32
2023-01-31T06:14:51.321Z,99539.83
2023-01-31T06:17:25.438Z,99542.36
2023-01-31T06:20:00.243Z,99549.54
2023-01-31T06:22:34.169Z,99556.39
2023-01-31T06:25:09.638Z,99557.92
2023-01-31T06:27:43.350Z,99564.13
2023-01-31T06:30:18.232Z,99569.56
2023-01-31T06:32:51.986Z,99574.27
2023-01-31T06:35:25.994Z,99576.14
2023-01-31T06:37:59.836Z,99582.29
2023-01-31T06:40:33.865Z,99585.15
2023-01-31T06:43:07.815Z,99587.17
2023-01-31T06:45:41.313Z,99591.88
2023-01-31T06:48:15.241Z,99596.45
2023-01-31T06:50:49.438Z,99599.36
2023-01-31T06:53:23.510Z,99600.34
2023-01-31T06:55:57.108Z,99602.38
2023-01-31T06:58:30.813Z,99605.80
2023-01-31T07:01:10.954Z,99608.94
2023-01-31T07:03:45.451Z,99612.42
2023-01-31T07:06:20.791Z,99620.17
2023-01-31T07:08:54.530Z,99624.14
2023-01-31T07:11:28.181Z,99629.52
2023-01-31T07:14:02.081Z,99636.56
2023-01-31T07:16:38.160Z,99642.91
2023-01-31T07:19:12.338Z,99652.73
2023-01-31T07:21:45.895Z,99656.20
2023-01-31T07:24:20.064Z,99656.33
2023-01-31T07:26:55.775Z,99657.77
2023-01-31T07:29:30.035Z,99667.00
2023-01-31T07:32:03.573Z,99671.42
2023-01-31T07:34:37.983Z,99672.41
2023-01-31T07:37:11.869Z,99671.41
2023-01-31T07:39:45.761Z,99669.95
2023-01-31T07:42:19.306Z,99671.38
2023-01-31T07:44:53.379Z,99680.57
2023-01-31T07:47:27.142Z,99688.45
2023-01-31T07:50:00.869Z,99692.09
2023-01-31T07:52:35.199Z,99699.13
2023-01-31T07:55:10.237Z,99701.53
2023-01-31T07:57:44.031Z,99703.04
2023-01-31T08:00:36.898Z,99708.00
2023-01-31T08:03:35.429Z,99710.89
2023-01-31T08:06:12.373Z,99720.08
2023-01-31T08:08:47.374Z,99722.07
2023-01-31T08:11:22.000Z,99727.45
2023-01-31T08:13:55.794Z,99729.18
2023-01-31T08:16:30.487Z,99735.84
2023-01-31T08:19:04.503Z,99744.34
2023-01-31T08:21:38.295Z,99741.70
2023-01-31T08:24:13.239Z,99743.52
2023-01-31T08:26:47.943Z,99745.95
2023-01-31T08:29:22.489Z,99748.09
2023-01-31T08:31:56.750Z,99754.44
2023-01-31T08:34:30.921Z,99752.15
2023-01-31T08:37:05.301Z,99755.73
2023-01-31T08:39:39.247Z,99757.77
2023-01-31T08:42:13.073Z,99763.05
2023-01-31T08:44:47.039Z,99765.71
2023-01-31T08:47:21.031Z,99766.57
2023-01-31T08:49:55.019Z,99764.84
2023-01-31T08:52:29.260Z,99765.98
2023-01-31T08:55:03.246Z,99762.50
2023-01-31T08:57:45.811Z,99760.40
2023-01-31T09:00:27.118Z,99762.60
2023-01-31T09:03:02.320Z,99764.69
2023-01-31T09:05:36.383Z,99769.13
2023-01-31T09:08:10.130Z,99777.02
2023-01-31T09:10:43.928Z,99774.73
2023-01-31T09:13:17.583Z,99772.73
2023-01-31T09:15:58.895Z,99778.80
2023-01-31T09:18:34.516Z,99784.73
2023-01-31T09:21:12.884Z,99785.62
2023-01-31T09:23:45.946Z,99787.36
2023-01-31T09:26:20.191Z,99792.58
2023-01-31T09:28:53.710Z,99795.36
2023-01-31T09:31:28.622Z,99798.20
2023-01-31T09:34:02.653Z,99800.05
2023-01-31T09:36:36.852Z,99802.02
2023-01-31T09:39:12.668Z,99808.42
2023-01-31T09:41:50.123Z,99811.61
2023-01-31T09:44:28.365Z,99812.41
2023-01-31T09:47:10.740Z,99815.84
2023-01-31T09:49:50.324Z,99815.72
2023-01-31T09:52:24.601Z,99816.70
2023-01-31T09:54:58.853Z,99817.61
2023-01-31T09:57:43.208Z,99820.30
2023-01-31T10:00:30.588Z,99818.89
2023-01-31T10:03:28.280Z,99818.85
2023-01-31T10:06:12.588Z,99816.98
2023-01-31T10:08:55.567Z,99817.33
2023-01-31T10:11:38.344Z,99812.55
2023-01-31T10:14:28.030Z,99813.20
2023-01-31T10:17:12.714Z,99807.39
2023-01-31T10:19:53.955Z,99806.87
2023-01-31T10:22:37.068Z,99810.66
2023-01-31T10:25:26.998Z,99813.88
2023-01-31T10:28:04.246Z,99812.00
2023-01-31T10:30:47.213Z,99812.95
2023-01-31T10:33:30.461Z,99811.77
2023-01-31T10:36:07.511Z,99817.05
2023-01-31T10:38:47.778Z,99814.50
2023-01-31T10:41:39.129Z,99813.11
2023-01-31T10:44:23.115Z,99811.38
2023-01-31T10:47:00.628Z,99810.95
2023-01-31T10:49:34.429Z,99810.77
2023-01-31T10:52:31.497Z,99814.11
2023-01-31T10:55:30.642Z,99817.04
2023-01-31T10:58:06.189Z,99815.46
2023-01-31T11:00:41.527Z,99813.84
2023-01-31T11:03:17.082Z,99811.91
2023-01-31T11:05:52.889Z,99812.67
2023-01-31T11:08:35.407Z,99803.92
2023-01-31T11:11:14.054Z,99799.91
2023-01-31T11:14:00.234Z,99801.30
2023-01-31T11:16:37.295Z,99809.27
2023-01-31T11:19:21.178Z,99815.19
2023-01-31T11:21:56.590Z,99813.77
2023-01-31T11:24:34.254Z,99818.98
2023-01-31T11:27:12.234Z,99818.27
2023-01-31T11:29:54.962Z,99819.36
2023-01-31T11:32:31.335Z,99825.39
2023-01-31T11:35:07.850Z,99828.13
2023-01-31T11:37:54.381Z,99828.77
2023-01-31T11:40:34.177Z,99825.56
2023-01-31T11:43:23.825Z,99824.90
2023-01-31T11:46:02.268Z,99821.14
2023-01-31T11:48:41.769Z,99823.63
2023-01-31T11:51:28.540Z,99816.20
2023-01-31T11:54:05.638Z,99816.20
2023-01-31T11:56:40.613Z,99816.16
2023-01-31T11:59:19.303Z,99811.80
2023-01-31T12:01:52.759Z,99806.83
2023-01-31T12:04:32.246Z,99802.13
2023-01-31T12:07:21.216Z,99796.41
2023-01-31T12:09:55.156Z,99793.46
2023-01-31T12:12:32.828Z,99790.68
2023-01-31T12:15:15.876Z,99791.50
2023-01-31T12:17:52.118Z,99781.17
2023-01-31T12:20:41.573Z,99781.52
2023-01-31T12:23:29.553Z,99777.45
2023-01-31T12:26:12.885Z,99778.33
2023-01-31T12:29:08.709Z,99775.09
2023-01-31T12:32:20.568Z,99772.55
2023-01-31T12:35:23.262Z,99774.85
2023-01-31T12:38:06.465Z,99770.17
2023-01-31T12:40:46.068Z,99773.42
2023-01-31T12:43:37.499Z,99768.85
2023-01-31T12:46:19.589Z,99762.91
2023-01-31T12:49:15.302Z,99764.98
2023-01-31T12:51:59.913Z,99765.77
2023-01-31T12:54:53.735Z,99761.02
2023-01-31T12:57:40.401Z,99766.96
2023-01-31T13:00:36.904Z,99770.59
2023-01-31T13:03:45.974Z,99766.80
2023-01-31T13:06:28.500Z,99770.08
2023-01-31T13:09:09.081Z,99772.29
2023-01-31T13:11:46.001Z,99772.39
2023-01-31T13:14:22.148Z,99770.04
2023-01-31T13:17:00.486Z,99769.05
2023-01-31T13:19:41.955Z,99764.96
2023-01-31T13:22:20.411Z,99767.57
2023-01-31T13:25:01.145Z,99762.55
2023-01-31T13:27:41.402Z,99756.34
2023-01-31T13:30:24.091Z,99758.18
2023-01-31T13:33:01.303Z,99754.90
2023-01-31T13:35:40.037Z,99752.65
2023-01-31T13:38:19.318Z,99754.80
2023-01-31T13:40:55.838Z,99754.05
2023-01-31T13:43:29.796Z,99757.10
2023-01-31T13:46:08.801Z,99760.80
2023-01-31T13:48:47.425Z,99754.48
2023-01-31T13:51:24.919Z,99755.84
2023-01-31T13:54:05.594Z,99763.80
2023-01-31T13:56:41.693Z,99764.95
2023-01-31T13:59:25.271Z,99769.23
2023-01-31T14:02:00.782Z,99772.52
2023-01-31T14:04:40.259Z,99772.18
2023-01-31T14:07:27.130Z,99769.34
2023-01-31T14:10:38.022Z,99761.64
2023-01-31T14:13:43.547Z,99757.88
2023-01-31T14:16:39.425Z,99759.23
2023-01-31T14:19:47.194Z,99756.45
2023-01-31T14:22:23.001Z,99749.73
2023-01-31T14:25:01.947Z,99745.90
2023-01-31T14:27:45.445Z,99744.66
2023-01-31T14:30:35.360Z,99746.72
2023-01-31T14:33:34.814Z,99749.55
2023-01-31T14:36:50.234Z,99751.63
2023-01-31T14:39:54.946Z,99751.09
2023-01-31T14:43:16.944Z,99754.79
2023-01-31T14:46:36.420Z,99750.83
2023-01-31T14:49:36.203Z,99747.58
2023-01-31T14:52:38.599Z,99743.52
2023-01-31T14:55:30.405Z,99744.25
2023-01-31T14:58:07.294Z,99742.88
2023-01-31T15:00:49.007Z,99741.77
2023-01-31T15:03:26.566Z,99740.57
2023-01-31T15:06:11.943Z,99736.18
2023-01-31T15:08:49.567Z,99737.20
2023-01-31T15:11:44.477Z,99738.11
2023-01-31T15:14:42.032Z,99740.85
2023-01-31T15:17:35.571Z,99739.46
2023-01-31T15:20:21.575Z,99738.20
2023-01-31T15:23:00.731Z,99736.79
2023-01-31T15:25:41.628Z,99737.79
2023-01-31T15:28:19.936Z,99741.12
2023-01-31T15:30:56.401Z,99741.20
2023-01-31T15:33:34.737Z,99737.05
2023-01-31T15:36:09.683Z,99733.40
2023-01-31T15:38:51.732Z,99738.55
2023-01-31T15:41:27.354Z,99734.42
2023-01-31T15:44:18.185Z,99735.13
2023-01-31T15:46:53.605Z,99730.46
2023-01-31T15:49:40.465Z,99726.20
2023-01-31T15:52:20.609Z,99723.99
2023-01-31T15:55:05.474Z,99717.92
2023-01-31T15:57:43.919Z,99722.60
2023-01-31T16:00:26.577Z,99721.39
2023-01-31T16:03:04.404Z,99727.07
2023-01-31T16:05:40.862Z,99727.08
2023-01-31T16:08:29.422Z,99725.90
2023-01-31T16:11:06.323Z,99730.30
2023-01-31T16:13:43.210Z,99735.84
2023-01-31T16:16:17.751Z,99737.06
2023-01-31T16:18:55.299Z,99734.57
2023-01-31T16:21:38.123Z,99732.21
2023-01-31T16:24:19.061Z,99728.85
2023-01-31T16:27:00.720Z,99726.33
2023-01-31T16:29:43.290Z,99722.50
2023-01-31T16:32:24.595Z,99720.85
2023-01-31T16:35:02.878Z,99721.63
2023-01-31T16:37:40.975Z,99721.33
2023-01-31T16:40:22.058Z,99721.98
2023-01-31T16:43:22.445Z,99723.48
2023-01-31T16:46:00.530Z,99720.40
2023-01-31T16:48:37.510Z,99716.26
2023-01-31T16:51:44.943Z,99711.41
2023-01-31T16:54:25.373Z,99705.13
2023-01-31T16:57:26.180Z,99701.99
2023-01-31T17:00:04.595Z,99696.60
2023-01-31T17:02:44.629Z,99696.02
2023-01-31T17:05:25.905Z,99689.06
2023-01-31T17:08:04.060Z,99684.12
2023-01-31T17:10:41.991Z,99677.59
2023-01-31T17:13:22.595Z,99672.89
2023-01-31T17:16:02.719Z,99672.48
2023-01-31T17:18:37.445Z,99670.11
2023-01-31T17:21:14.387Z,99666.63
2023-01-31T17:23:52.185Z,99662.26
2023-01-31T17:26:28.673Z,99662.25
2023-01-31T17:29:08.560Z,99661.67
2023-01-31T17:31:48.030Z,99657.86
2023-01-31T17:34:27.882Z,99651.00
2023-01-31T17:37:18.016Z,99647.14
2023-01-31T17:39:53.626Z,99642.30
2023-01-31T17:42:29.629Z,99636.64
2023-01-31T17:45:06.221Z,99634.31
2023-01-31T17:47:42.517Z,99633.70
2023-01-31T17:50:23.622Z,99626.66
2023-01-31T17:53:01.261Z,99616.45
2023-01-31T17:55:50.816Z,99609.27
2023-01-31T17:58:30.215Z,99606.67
2023-01-31T18:01:06.460Z,99603.24
2023-01-31T18:03:44.611Z,99598.90
2023-01-31T18:06:19.393Z,99595.61
2023-01-31T18:08:58.015Z,99590.48
2023-01-31T18:11:34.745Z,99588.65
2023-01-31T18:14:16.225Z,99578.11
2023-01-31T18:16:56.420Z,99576.05
2023-01-31T18:19:36.097Z,99573.48
2023-01-31T18:22:15.318Z,99570.23
2023-01-31T18:24:52.658Z,99564.66
2023-01-31T18:27:28.167Z,99557.30
2023-01-31T18:30:11.531Z,99555.77
2023-01-31T18:32:49.448Z,99551.79
2023-01-31T18:35:27.460Z,99550.05
2023-01-31T18:38:08.124Z,99546.72
2023-01-31T18:40:46.717Z,99542.36
2023-01-31T18:43:24.916Z,99534.11
2023-01-31T18:46:01.594Z,99532.58
2023-01-31T18:48:40.172Z,99526.98
2023-01-31T18:51:17.826Z,99522.98
2023-01-31T18:53:58.452Z,99522.06
2023-01-31T18:56:35.829Z,99521.19
2023-01-31T18:59:13.210Z,99518.31
2023-01-31T19:01:55.990Z,99513.27
2023-01-31T19:04:35.542Z,99509.16
2023-01-31T19:07:12.900Z,99506.35
2023-01-31T19:09:49.104Z,99503.06
2023-01-31T19:12:31.670Z,99496.63
2023-01-31T19:15:09.620Z,99495.15
2023-01-31T19:17:47.835Z,99489.61
2023-01-31T19:20:27.636Z,99487.44
2023-01-31T19:23:03.954Z,99486.20
2023-01-31T19:25:44.913Z,99482.94
2023-01-31T19:28:26.493Z,99475.21
2023-01-31T19:31:09.681Z,99462.52
2023-01-31T19:33:53.673Z,99458.45
2023-01-31T19:36:34.984Z,99457.36
2023-01-31T19:39:20.326Z,99449.07
2023-01-31T19:41:57.951Z,99440.46
2023-01-31T19:44:39.208Z,99432.85
2023-01-31T19:47:19.391Z,99422.86
2023-01-31T19:49:55.991Z,99411.17
2023-01-31T19:52:36.354Z,99408.52
2023-01-31T19:55:16.763Z,99405.23
2023-01-31T19:57:57.844Z,99404.23
2023-01-31T20:00:35.848Z,99391.66
2023-01-31T20:03:12.775Z,99382.92
2023-01-31T20:05:53.003Z,99381.41
2023-01-31T20:08:29.877Z,99377.79
2023-01-31T20:11:08.907Z,99368.58
2023-01-31T20:13:47.739Z,99360.97
2023-01-31T20:16:24.979Z,99352.30
2023-01-31T20:19:04.506Z,99350.83
2023-01-31T20:21:42.555Z,99345.77
2023-01-31T20:24:27.359Z,99338.77
2023-01-31T20:27:09.605Z,99332.19
2023-01-31T20:29:46.165Z,99330.57
2023-01-31T20:32:22.488Z,99329.83
2023-01-31T20:35:02.159Z,99320.25
2023-01-31T20:37:38.069Z,99314.92
2023-01-31T20:40:17.490Z,99313.45
2023-01-31T20:42:58.427Z,99312.71
2023-01-31T20:45:38.581Z,99312.02
2023-01-31T20:48:16.950Z,99307.52
2023-01-31T20:51:01.605Z,99304.61
2023-01-31T20:53:38.727Z,99296.67
2023-01-31T20:56:16.285Z,99295.35
2023-01-31T20:58:56.165Z,99286.34
2023-01-31T21:01:35.591Z,99277.73
2023-01-31T21:04:17.875Z,99275.04
2023-01-31T21:06:53.801Z,99271.54
2023-01-31T21:09:36.419Z,99266.94
2023-01-31T21:12:15.551Z,99255.91
2023-01-31T21:14:56.101Z,99249.67
2023-01-31T21:17:40.013Z,99241.90
2023-01-31T21:20:16.850Z,99238.63
2023-01-31T21:22:51.439Z,99238.59
2023-01-31T21:25:25.811Z,99230.05
2023-01-31T21:28:00.745Z,99223.81
2023-01-31T21:30:35.149Z,99222.27
2023-01-31T21:33:09.477Z,99215.65
2023-01-31T21:35:45.427Z,99206.27
2023-01-31T21:38:19.983Z,99203.45
2023-01-31T21:41:15.630Z,99204.13
2023-01-31T21:43:49.911Z,99199.89
2023-01-31T21:46:24.453Z,99192.91
2023-01-31T21:48:58.426Z,99187.92
2023-01-31T21:51:32.294Z,99184.44
2023-01-31T21:54:06.152Z,99181.45
2023-01-31T21:56:39.767Z,99178.69
2023-01-31T21:59:13.678Z,99174.65
2023-01-31T22:01:48.123Z,99171.61
2023-01-31T22:04:23.654Z,99171.66
2023-01-31T22:06:57.507Z,99162.51
2023-01-31T22:09:32.455Z,99154.38
2023-01-31T22:12:06.732Z,99147.33
2023-01-31T22:14:40.476Z,99145.23
2023-01-31T22:17:14.479Z,99138.39
2023-01-31T22:19:49.057Z,99135.95
2023-01-31T22:22:23.096Z,99132.62
2023-01-31T22:24:56.729Z,99126.92
2023-01-31T22:27:30.591Z,99127.61
2023-01-31T22:30:27.784Z,99127.16
2023-01-31T22:32:58.718Z,99119.13
2023-01-31T22:35:32.715Z,99116.06
2023-01-31T22:38:07.071Z,99115.58
2023-01-31T22:40:45.342Z,99112.65
2023-01-31T22:43:21.762Z,99106.73
2023-01-31T22:45:57.281Z,99105.45
2023-01-31T22:48:31.299Z,99096.21
2023-01-31T22:51:06.544Z,99086.19
2023-01-31T22:53:41.254Z,99082.77
2023-01-31T22:56:17.749Z,99073.02
2023-01-31T22:58:55.923Z,99079.77
2023-01-31T23:01:32.104Z,99075.16
2023-01-31T23:04:08.749Z,99074.46
2023-01-31T23:06:42.608Z,99070.85
2023-01-31T23:09:16.537Z,99067.49
2023-01-31T23:11:50.703Z,99062.38
2023-01-31T23:14:24.726Z,99058.92
2023-01-31T23:17:16.284Z,99049.78
2023-01-31T23:19:50.170Z,99046.88
2023-01-31T23:22:23.964Z,99044.52
2023-01-31T23:24:57.689Z,99044.39
2023-01-31T23:27:31.417Z,99037.69
2023-01-31T23:30:05.286Z,99037.41
2023-01-31T23:32:41.458Z,99038.45
2023-01-31T23:35:16.623Z,99031.96
2023-01-31T23:37:50.478Z,99034.06
2023-01-31T23:40:24.213Z,99038.25
2023-01-31T23:42:57.901Z,99037.02
2023-01-31T23:45:32.591Z,99033.69
2023-01-31T23:48:06.780Z,99029.55
2023-01-31T23:50:40.731Z,99021.90
2023-01-31T23:53:14.575Z,99019.51
2023-01-31T23:55:48.791Z,99021.08
2023-01-31T23:58:22.720Z,99016.73
